createdAt,value
2018-06-15T00:00:17.342Z,78.90
2018-06-15T00:02:49.842Z,78.80
2018-06-15T00:05:18.111Z,79.50
2018-06-15T00:07:46.345Z,78.80
2018-06-15T00:10:14.590Z,78.70
2018-06-15T00:12:44.789Z,78.70
2018-06-15T00:15:13.023Z,78.70
2018-06-15T00:17:41.243Z,78.70
2018-06-15T00:20:09.959Z,78.70
2018-06-15T00:22:38.190Z,78.70
2018-06-15T00:25:06.433Z,78.60
2018-06-15T00:27:34.711Z,78.60
2018-06-15T00:30:02.984Z,78.60
2018-06-15T00:32:31.194Z,78.60
2018-06-15T00:35:00.485Z,78.50
2018-06-15T00:37:28.740Z,78.50
2018-06-15T00:39:56.983Z,78.40
2018-06-15T00:42:25.619Z,78.40
2018-06-15T00:44:53.922Z,79.10
2018-06-15T00:47:22.161Z,78.30
2018-06-15T00:49:50.433Z,78.40
2018-06-15T00:52:18.656Z,78.40
2018-06-15T00:54:46.900Z,78.30
2018-06-15T00:57:27.054Z,78.30
2018-06-15T00:59:55.282Z,78.30
2018-06-15T01:02:23.515Z,78.30
2018-06-15T01:04:51.998Z,78.30
2018-06-15T01:07:20.258Z,78.20
2018-06-15T01:09:49.668Z,78.20
2018-06-15T01:12:17.950Z,78.20
2018-06-15T01:14:46.850Z,78.20
2018-06-15T01:17:15.118Z,78.10
2018-06-15T01:19:43.671Z,78.10
2018-06-15T01:22:11.901Z,78.10
2018-06-15T01:24:40.120Z,78.10
2018-06-15T01:27:09.150Z,78.10
2018-06-15T01:29:37.542Z,78.70
2018-06-15T01:32:05.791Z,78.00
2018-06-15T01:34:34.391Z,78.00
2018-06-15T01:37:02.641Z,78.00
2018-06-15T01:39:30.861Z,78.00
2018-06-15T01:41:59.121Z,78.00
2018-06-15T01:44:27.370Z,77.90
2018-06-15T01:46:55.591Z,77.90
2018-06-15T01:49:24.570Z,77.90
2018-06-15T01:51:52.808Z,77.90
2018-06-15T01:54:21.030Z,77.90
2018-06-15T01:56:49.325Z,77.90
2018-06-15T01:59:17.565Z,77.80
2018-06-15T02:01:45.804Z,77.80
2018-06-15T02:04:14.223Z,77.80
2018-06-15T02:06:42.440Z,77.80
2018-06-15T02:09:12.925Z,77.80
2018-06-15T02:11:41.421Z,77.80
2018-06-15T02:14:09.641Z,77.80
2018-06-15T02:16:38.275Z,77.70
2018-06-15T02:19:06.586Z,77.70
2018-06-15T02:21:34.823Z,77.70
2018-06-15T02:24:03.073Z,77.70
2018-06-15T02:26:31.585Z,77.70
2018-06-15T02:28:59.845Z,77.60
2018-06-15T02:31:28.088Z,77.60
2018-06-15T02:33:56.518Z,77.60
2018-06-15T02:36:25.648Z,77.60
2018-06-15T02:41:22.099Z,77.60
2018-06-15T02:43:50.350Z,77.60
2018-06-15T02:46:18.627Z,77.60
2018-06-15T02:48:47.197Z,77.60
2018-06-15T02:51:15.447Z,77.60
2018-06-15T02:53:43.825Z,77.60
2018-06-15T02:56:12.099Z,77.50
2018-06-15T02:58:40.352Z,77.50
2018-06-15T03:01:08.587Z,77.50
2018-06-15T03:03:36.871Z,77.50
2018-06-15T03:06:05.147Z,77.50
2018-06-15T03:08:35.465Z,77.50
2018-06-15T03:11:03.946Z,77.40
2018-06-15T03:13:32.173Z,77.40
2018-06-15T03:16:00.414Z,77.50
2018-06-15T03:18:29.395Z,77.50
2018-06-15T03:20:57.622Z,77.50
2018-06-15T03:23:25.850Z,77.40
2018-06-15T03:25:55.047Z,77.40
2018-06-15T03:28:23.294Z,77.40
2018-06-15T03:30:51.526Z,77.40
2018-06-15T03:33:20.070Z,77.30
2018-06-15T03:35:48.338Z,77.30
2018-06-15T03:38:16.681Z,77.30
2018-06-15T03:40:45.112Z,77.30
2018-06-15T03:43:13.333Z,77.30
2018-06-15T03:45:41.587Z,77.20
2018-06-15T03:48:10.753Z,77.30
2018-06-15T03:50:38.987Z,77.90
2018-06-15T03:53:07.211Z,77.20
2018-06-15T03:55:35.795Z,77.20
2018-06-15T03:58:04.093Z,77.20
2018-06-15T04:00:32.331Z,77.20
2018-06-15T04:03:00.829Z,77.20
2018-06-15T04:05:29.058Z,77.80
2018-06-15T04:07:58.721Z,77.20
2018-06-15T04:10:26.966Z,77.10
2018-06-15T04:12:55.245Z,77.20
2018-06-15T04:15:23.753Z,77.20
2018-06-15T04:17:57.111Z,77.10
2018-06-15T04:20:26.233Z,77.10
2018-06-15T04:22:54.654Z,77.10
2018-06-15T04:25:22.891Z,77.10
2018-06-15T04:27:51.497Z,77.10
2018-06-15T04:30:19.728Z,77.10
2018-06-15T04:32:48.053Z,77.10
2018-06-15T04:35:16.360Z,77.10
2018-06-15T04:37:44.837Z,77.10
2018-06-15T04:40:13.109Z,77.10
2018-06-15T04:42:41.867Z,77.10
2018-06-15T04:45:10.111Z,77.10
2018-06-15T04:47:38.354Z,77.10
2018-06-15T04:50:07.815Z,77.10
2018-06-15T04:52:36.144Z,77.10
2018-06-15T04:55:04.614Z,77.10
2018-06-15T04:57:32.958Z,77.10
2018-06-15T05:00:01.212Z,77.70
2018-06-15T05:02:30.162Z,77.10
2018-06-15T05:04:59.525Z,77.10
2018-06-15T05:07:27.763Z,77.10
2018-06-15T05:09:57.999Z,77.10
2018-06-15T05:12:26.267Z,77.10
2018-06-15T05:14:54.547Z,77.10
2018-06-15T05:17:22.784Z,77.10
2018-06-15T05:19:51.053Z,77.20
2018-06-15T05:22:19.338Z,77.20
2018-06-15T05:24:47.587Z,77.50
2018-06-15T05:27:16.171Z,77.90
2018-06-15T05:29:44.410Z,77.80
2018-06-15T05:32:12.653Z,78.00
2018-06-15T05:34:40.911Z,78.00
2018-06-15T05:37:09.145Z,78.00
2018-06-15T05:39:37.394Z,78.00
2018-06-15T05:42:05.929Z,78.00
2018-06-15T05:44:34.174Z,78.00
2018-06-15T05:47:02.430Z,77.90
2018-06-15T05:49:31.377Z,77.90
2018-06-15T05:51:59.635Z,77.90
2018-06-15T05:54:29.881Z,77.90
2018-06-15T05:56:58.471Z,77.80
2018-06-15T05:59:26.907Z,77.80
2018-06-15T06:01:55.162Z,77.80
2018-06-15T06:04:23.699Z,77.80
2018-06-15T06:06:51.950Z,77.80
2018-06-15T06:09:20.184Z,77.80
2018-06-15T06:11:49.301Z,77.80
2018-06-15T06:14:17.565Z,77.80
2018-06-15T06:16:45.810Z,77.70
2018-06-15T06:19:14.490Z,77.70
2018-06-15T06:21:42.729Z,77.70
2018-06-15T06:24:13.116Z,77.70
2018-06-15T06:26:41.825Z,77.60
2018-06-15T06:29:10.019Z,77.60
2018-06-15T06:31:38.258Z,77.60
2018-06-15T06:34:07.520Z,77.50
2018-06-15T06:36:35.769Z,77.60
2018-06-15T06:39:05.993Z,77.60
2018-06-15T06:41:34.849Z,77.50
2018-06-15T06:44:03.134Z,77.50
2018-06-15T06:46:31.350Z,77.50
2018-06-15T06:48:59.967Z,77.40
2018-06-15T06:51:28.214Z,77.40
2018-06-15T06:53:56.491Z,77.40
2018-06-15T06:56:25.806Z,77.50
2018-06-15T06:58:54.052Z,77.50
2018-06-15T07:01:22.303Z,77.30
2018-06-15T07:03:50.558Z,77.40
2018-06-15T07:06:18.829Z,77.40
2018-06-15T07:08:48.709Z,78.00
2018-06-15T07:11:16.962Z,77.30
2018-06-15T07:13:45.217Z,77.30
2018-06-15T07:16:13.655Z,77.30
2018-06-15T07:18:41.891Z,77.30
2018-06-15T07:21:10.121Z,77.30
2018-06-15T07:23:38.655Z,77.30
2018-06-15T07:26:06.838Z,77.20
2018-06-15T07:28:35.079Z,77.20
2018-06-15T07:31:04.458Z,78.00
2018-06-15T07:33:32.707Z,77.20
2018-06-15T07:36:00.935Z,77.20
2018-06-15T07:38:29.584Z,77.20
2018-06-15T07:40:57.797Z,77.20
2018-06-15T07:43:26.041Z,77.20
2018-06-15T07:45:54.522Z,77.30
2018-06-15T07:48:22.784Z,77.20
2018-06-15T07:50:51.049Z,77.20
2018-06-15T07:53:19.619Z,77.20
2018-06-15T07:55:47.838Z,77.20
2018-06-15T07:58:16.071Z,77.10
2018-06-15T08:00:44.602Z,77.10
2018-06-15T08:03:12.834Z,77.00
2018-06-15T08:05:41.075Z,77.10
2018-06-15T08:08:11.161Z,77.00
2018-06-15T08:10:39.411Z,77.10
2018-06-15T08:13:07.705Z,77.10
2018-06-15T08:15:36.185Z,77.10
2018-06-15T08:18:04.451Z,77.10
2018-06-15T08:20:32.702Z,77.10
2018-06-15T08:23:01.326Z,77.10
2018-06-15T08:25:29.562Z,77.10
2018-06-15T08:27:57.791Z,77.10
2018-06-15T08:30:26.350Z,77.10
2018-06-15T08:32:54.601Z,77.10
2018-06-15T08:35:22.873Z,77.10
2018-06-15T08:37:52.018Z,77.10
2018-06-15T08:40:20.281Z,77.10
2018-06-15T08:42:48.508Z,77.00
2018-06-15T08:45:16.962Z,77.00
2018-06-15T08:47:45.179Z,77.00
2018-06-15T08:50:13.421Z,77.00
2018-06-15T08:52:42.539Z,77.00
2018-06-15T08:55:10.731Z,77.00
2018-06-15T08:57:38.982Z,77.00
2018-06-15T09:00:07.546Z,77.00
2018-06-15T09:02:35.763Z,77.00
2018-06-15T09:05:04.041Z,77.00
2018-06-15T09:07:33.102Z,77.00
2018-06-15T09:10:02.511Z,76.90
2018-06-15T09:12:30.754Z,77.00
2018-06-15T09:14:59.446Z,77.20
2018-06-15T09:17:27.689Z,77.10
2018-06-15T09:19:55.916Z,77.00
2018-06-15T09:22:24.481Z,77.00
2018-06-15T09:24:53.230Z,77.00
2018-06-15T09:27:22.010Z,77.00
2018-06-15T09:29:50.436Z,77.00
2018-06-15T09:32:18.682Z,76.90
2018-06-15T09:34:46.939Z,76.80
2018-06-15T09:37:15.582Z,76.80
2018-06-15T09:39:43.821Z,76.90
2018-06-15T09:42:12.078Z,76.90
2018-06-15T09:44:40.622Z,76.90
2018-06-15T09:47:08.854Z,76.90
2018-06-15T09:49:37.080Z,76.90
2018-06-15T09:52:05.548Z,76.90
2018-06-15T09:54:33.794Z,76.90
2018-06-15T09:57:02.022Z,76.90
2018-06-15T09:59:30.681Z,77.60
2018-06-15T10:01:58.926Z,76.90
2018-06-15T10:04:27.179Z,76.90
2018-06-15T10:06:55.927Z,76.80
2018-06-15T10:09:25.726Z,76.80
2018-06-15T10:11:54.007Z,76.90
2018-06-15T10:14:22.495Z,76.90
2018-06-15T10:16:50.758Z,76.90
2018-06-15T10:19:19.022Z,76.90
2018-06-15T10:21:47.314Z,76.90
2018-06-15T10:24:15.775Z,76.90
2018-06-15T10:26:44.434Z,76.90
2018-06-15T10:29:12.982Z,76.90
2018-06-15T10:31:41.250Z,76.90
2018-06-15T10:34:09.670Z,76.80
2018-06-15T10:36:38.522Z,76.80
2018-06-15T10:39:08.286Z,76.90
2018-06-15T10:41:36.518Z,76.80
2018-06-15T10:44:04.990Z,76.90
2018-06-15T10:46:33.232Z,76.90
2018-06-15T10:49:05.655Z,76.90
2018-06-15T10:51:33.893Z,76.90
2018-06-15T10:54:02.158Z,76.90
2018-06-15T10:56:30.679Z,76.90
2018-06-15T10:58:58.920Z,76.90
2018-06-15T11:01:27.159Z,76.90
2018-06-15T11:03:58.402Z,76.90
2018-06-15T11:06:26.659Z,76.90
2018-06-15T11:08:57.553Z,76.90
2018-06-15T11:11:25.741Z,76.90
2018-06-15T11:13:53.974Z,76.90
2018-06-15T11:16:22.734Z,76.90
2018-06-15T11:18:51.013Z,76.90
2018-06-15T11:21:19.285Z,76.90
2018-06-15T11:23:47.767Z,76.90
2018-06-15T11:26:16.003Z,76.90
2018-06-15T11:28:44.252Z,76.90
2018-06-15T11:33:41.375Z,76.90
2018-06-15T11:36:09.618Z,76.90
2018-06-15T11:38:38.073Z,76.90
2018-06-15T11:41:06.494Z,76.90
2018-06-15T11:43:34.643Z,76.90
2018-06-15T11:46:03.287Z,76.90
2018-06-15T11:48:31.519Z,76.90
2018-06-15T11:50:59.750Z,76.90
2018-06-15T11:53:28.214Z,76.90
2018-06-15T11:55:56.451Z,76.90
2018-06-15T11:58:24.762Z,76.90
2018-06-15T12:00:55.707Z,76.90
2018-06-15T12:03:23.954Z,76.90
2018-06-15T12:05:52.208Z,76.90
2018-06-15T12:08:23.982Z,76.90
2018-06-15T12:10:52.227Z,77.20
2018-06-15T12:13:20.459Z,77.40
2018-06-15T12:15:49.357Z,77.50
2018-06-15T12:18:17.615Z,78.20
2018-06-15T12:20:45.883Z,77.50
2018-06-15T12:23:14.440Z,77.40
2018-06-15T12:25:42.679Z,77.40
2018-06-15T12:28:10.916Z,77.30
2018-06-15T12:30:39.542Z,77.30
2018-06-15T12:33:07.822Z,77.30
2018-06-15T12:35:36.343Z,77.30
2018-06-15T12:38:05.087Z,77.30
2018-06-15T12:40:33.334Z,77.30
2018-06-15T12:43:01.633Z,77.30
2018-06-15T12:45:30.426Z,77.30
2018-06-15T12:47:58.713Z,77.30
2018-06-15T12:50:26.966Z,77.30
2018-06-15T12:52:56.175Z,77.30
2018-06-15T12:55:24.422Z,77.30
2018-06-15T12:57:52.655Z,77.30
2018-06-15T13:00:21.315Z,77.30
2018-06-15T13:02:49.582Z,77.40
2018-06-15T13:05:17.840Z,77.30
2018-06-15T13:07:47.690Z,77.30
2018-06-15T13:10:16.138Z,77.40
2018-06-15T13:12:44.467Z,77.30
2018-06-15T13:15:13.127Z,77.30
2018-06-15T13:17:41.363Z,77.30
2018-06-15T13:20:09.597Z,77.40
2018-06-15T13:22:38.058Z,77.40
2018-06-15T13:25:06.317Z,77.30
2018-06-15T13:27:34.584Z,77.40
2018-06-15T13:30:03.195Z,77.40
2018-06-15T13:32:31.450Z,77.40
2018-06-15T13:34:59.690Z,77.40
2018-06-15T13:37:27.975Z,77.40
2018-06-15T13:39:56.206Z,77.40
2018-06-15T13:42:24.483Z,77.50
2018-06-15T13:44:52.771Z,77.50
2018-06-15T13:47:21.036Z,77.50
2018-06-15T13:49:49.268Z,77.50
2018-06-15T13:52:17.730Z,77.50
2018-06-15T13:54:45.969Z,77.50
2018-06-15T13:57:14.214Z,77.50
2018-06-15T13:59:42.562Z,77.50
2018-06-15T14:02:10.802Z,77.50
2018-06-15T14:04:40.313Z,77.60
2018-06-15T14:07:08.580Z,77.70
2018-06-15T14:09:40.737Z,77.70
2018-06-15T14:12:09.239Z,78.20
2018-06-15T14:14:37.514Z,77.80
2018-06-15T14:17:05.758Z,77.80
2018-06-15T14:19:34.263Z,77.70
2018-06-15T14:22:02.515Z,77.60
2018-06-15T14:24:30.831Z,77.20
2018-06-15T14:26:59.502Z,76.80
2018-06-15T14:29:27.812Z,77.20
2018-06-15T14:31:56.063Z,77.50
2018-06-15T14:34:24.706Z,77.40
2018-06-15T14:36:53.040Z,77.40
2018-06-15T14:39:21.267Z,77.30
2018-06-15T14:41:50.190Z,77.30
2018-06-15T14:44:18.503Z,77.40
2018-06-15T14:46:46.844Z,77.30
2018-06-15T14:49:15.834Z,77.30
2018-06-15T14:51:44.068Z,77.30
2018-06-15T14:54:12.411Z,77.20
2018-06-15T14:56:41.299Z,77.30
2018-06-15T14:59:09.530Z,77.30
2018-06-15T15:01:37.848Z,77.30
2018-06-15T15:04:06.521Z,77.30
2018-06-15T15:06:34.786Z,77.30
2018-06-15T15:09:06.733Z,77.30
2018-06-15T15:11:35.043Z,77.30
2018-06-15T15:14:03.519Z,77.30
2018-06-15T15:16:31.884Z,77.30
2018-06-15T15:19:00.184Z,77.30
2018-06-15T15:21:28.413Z,77.40
2018-06-15T15:23:56.733Z,77.40
2018-06-15T15:26:26.132Z,78.00
2018-06-15T15:28:54.542Z,77.40
2018-06-15T15:31:22.941Z,77.40
2018-06-15T15:33:51.202Z,77.40
2018-06-15T15:36:19.633Z,77.40
2018-06-15T15:38:48.238Z,77.40
2018-06-15T15:41:16.617Z,77.50
2018-06-15T15:43:44.867Z,77.40
2018-06-15T15:46:14.284Z,77.40
2018-06-15T15:48:42.611Z,77.50
2018-06-15T15:51:10.834Z,77.50
2018-06-15T15:53:39.532Z,77.40
2018-06-15T15:56:07.838Z,77.50
2018-06-15T15:58:36.090Z,77.40
2018-06-15T16:01:07.228Z,77.40
2018-06-15T16:03:35.547Z,77.40
2018-06-15T16:06:04.702Z,77.40
2018-06-15T16:08:35.647Z,77.50
2018-06-15T16:11:03.899Z,77.40
2018-06-15T16:13:32.133Z,77.50
2018-06-15T16:16:00.540Z,77.50
2018-06-15T16:18:28.893Z,77.50
2018-06-15T16:20:57.296Z,77.50
2018-06-15T16:23:25.923Z,77.50
2018-06-15T16:25:54.149Z,77.50
2018-06-15T16:28:22.407Z,77.50
2018-06-15T16:30:51.467Z,77.50
2018-06-15T16:33:19.715Z,77.60
2018-06-15T16:35:47.938Z,77.50
2018-06-15T16:38:17.639Z,77.60
2018-06-15T16:40:45.895Z,77.50
2018-06-15T16:43:14.144Z,77.50
2018-06-15T16:45:42.604Z,77.60
2018-06-15T16:48:10.845Z,77.60
2018-06-15T16:50:39.092Z,77.60
2018-06-15T16:53:07.798Z,77.60
2018-06-15T16:55:36.039Z,77.60
2018-06-15T16:58:04.288Z,77.60
2018-06-15T17:00:32.749Z,77.60
2018-06-15T17:03:01.082Z,77.60
2018-06-15T17:05:29.318Z,77.60
2018-06-15T17:07:59.517Z,77.60
2018-06-15T17:10:27.745Z,77.60
2018-06-15T17:12:56.074Z,77.60
2018-06-15T17:15:24.548Z,77.60
2018-06-15T17:17:52.888Z,77.60
2018-06-15T17:20:21.153Z,77.60
2018-06-15T17:22:49.912Z,77.60
2018-06-15T17:25:18.147Z,77.70
2018-06-15T17:27:46.427Z,77.70
2018-06-15T17:30:15.642Z,77.70
2018-06-15T17:32:43.890Z,77.70
2018-06-15T17:35:12.454Z,77.70
2018-06-15T17:37:40.998Z,77.70
2018-06-15T17:40:09.274Z,77.70
2018-06-15T17:42:37.522Z,77.70
2018-06-15T17:45:06.130Z,77.70
2018-06-15T17:47:34.471Z,77.70
2018-06-15T17:50:02.921Z,77.70
2018-06-15T17:52:31.975Z,77.70
2018-06-15T17:55:00.234Z,77.70
2018-06-15T17:57:28.447Z,77.70
2018-06-15T17:59:57.014Z,77.70
2018-06-15T18:02:25.263Z,77.70
2018-06-15T18:04:53.540Z,77.70
2018-06-15T18:07:24.462Z,77.70
2018-06-15T18:09:52.741Z,77.80
2018-06-15T18:12:20.995Z,77.70
2018-06-15T18:14:49.533Z,77.70
2018-06-15T18:17:17.856Z,77.70
2018-06-15T18:19:46.070Z,77.70
2018-06-15T18:22:14.986Z,77.70
2018-06-15T18:24:43.410Z,77.80
2018-06-15T18:29:40.579Z,78.00
2018-06-15T18:32:08.769Z,78.10
2018-06-15T18:34:36.994Z,78.30
2018-06-15T18:37:05.664Z,78.30
2018-06-15T18:39:34.059Z,78.50
2018-06-15T18:42:02.326Z,78.70
2018-06-15T18:44:30.798Z,78.70
2018-06-15T18:49:27.119Z,78.80
2018-06-15T18:51:56.709Z,78.80
2018-06-15T18:54:25.023Z,79.10
2018-06-15T18:56:53.251Z,79.30
2018-06-15T18:59:23.129Z,79.50
2018-06-15T19:01:51.378Z,79.60
2018-06-15T19:04:20.988Z,79.80
2018-06-15T19:06:49.827Z,80.10
2018-06-15T19:09:20.542Z,80.10
2018-06-15T19:11:48.834Z,80.60
2018-06-15T19:14:17.315Z,81.00
2018-06-15T19:16:45.574Z,81.50
2018-06-15T19:19:13.857Z,81.60
2018-06-15T19:21:42.439Z,81.90
2018-06-15T19:24:10.725Z,82.20
2018-06-15T19:26:39.087Z,82.50
2018-06-15T19:29:08.404Z,82.80
2018-06-15T19:31:36.645Z,83.00
2018-06-15T19:34:04.958Z,83.20
2018-06-15T19:36:33.437Z,83.30
2018-06-15T19:39:01.711Z,83.40
2018-06-15T19:41:30.044Z,83.30
2018-06-15T19:43:58.574Z,83.10
2018-06-15T19:46:26.809Z,83.10
2018-06-15T19:48:55.124Z,83.30
2018-06-15T19:51:24.240Z,83.30
2018-06-15T19:53:52.483Z,83.10
2018-06-15T19:56:20.748Z,83.30
2018-06-15T19:58:49.155Z,83.20
2018-06-15T20:01:17.445Z,83.00
2018-06-15T20:03:45.673Z,83.90
2018-06-15T20:06:14.134Z,84.40
2018-06-15T20:08:44.316Z,84.70
2018-06-15T20:11:12.808Z,85.20
2018-06-15T20:13:41.194Z,85.30
2018-06-15T20:16:09.486Z,85.70
2018-06-15T20:18:37.761Z,85.00
2018-06-15T20:21:10.095Z,84.60
2018-06-15T20:23:38.377Z,84.40
2018-06-15T20:26:08.177Z,84.50
2018-06-15T20:28:36.666Z,84.70
2018-06-15T20:31:04.936Z,85.00
2018-06-15T20:33:33.193Z,85.10
2018-06-15T20:36:01.891Z,85.20
2018-06-15T20:38:30.063Z,85.30
2018-06-15T20:40:58.318Z,85.30
2018-06-15T20:43:27.654Z,85.30
2018-06-15T20:45:55.917Z,85.30
2018-06-15T20:48:24.178Z,85.40
2018-06-15T20:50:52.687Z,85.30
2018-06-15T20:53:21.026Z,85.40
2018-06-15T20:55:49.282Z,85.50
2018-06-15T20:58:18.135Z,85.50
2018-06-15T21:00:46.479Z,85.50
2018-06-15T21:03:14.724Z,85.40
2018-06-15T21:05:43.266Z,85.30
2018-06-15T21:08:13.087Z,85.30
2018-06-15T21:10:41.318Z,85.10
2018-06-15T21:13:09.854Z,85.00
2018-06-15T21:15:38.098Z,85.00
2018-06-15T21:18:06.347Z,84.90
2018-06-15T21:20:34.898Z,84.90
2018-06-15T21:23:03.180Z,84.80
2018-06-15T21:25:31.539Z,84.60
2018-06-15T21:28:00.207Z,84.60
2018-06-15T21:30:28.717Z,84.60
2018-06-15T21:32:56.937Z,84.50
2018-06-15T21:35:25.762Z,84.50
2018-06-15T21:37:54.027Z,84.30
2018-06-15T21:40:22.331Z,84.30
2018-06-15T21:42:50.818Z,84.20
2018-06-15T21:45:19.206Z,84.20
2018-06-15T21:47:47.521Z,84.10
2018-06-15T21:50:16.958Z,84.00
2018-06-15T21:52:45.229Z,84.00
2018-06-15T21:55:13.574Z,83.90
2018-06-15T21:57:42.107Z,83.90
2018-06-15T22:00:10.361Z,83.90
2018-06-15T22:02:38.572Z,83.90
2018-06-15T22:05:07.231Z,83.80
2018-06-15T22:07:42.346Z,83.80
2018-06-15T22:10:10.681Z,83.80
2018-06-15T22:12:39.125Z,83.70
2018-06-15T22:15:07.405Z,83.60
2018-06-15T22:17:35.903Z,83.60
2018-06-15T22:20:04.199Z,83.60
2018-06-15T22:22:32.447Z,83.50
2018-06-15T22:25:02.044Z,83.50
2018-06-15T22:27:30.267Z,83.50
2018-06-15T22:29:58.510Z,83.50
2018-06-15T22:32:26.809Z,84.10
2018-06-15T22:34:55.071Z,83.40
2018-06-15T22:37:23.382Z,83.30
2018-06-15T22:39:51.659Z,83.30
2018-06-15T22:42:19.996Z,83.30
2018-06-15T22:44:48.234Z,83.30
2018-06-15T22:47:17.581Z,83.20
2018-06-15T22:49:45.908Z,83.20
2018-06-15T22:52:14.163Z,83.10
2018-06-15T22:54:42.835Z,83.10
2018-06-15T22:57:11.069Z,83.10
2018-06-15T22:59:39.319Z,83.10
2018-06-15T23:02:07.854Z,83.00
2018-06-15T23:04:36.174Z,83.10
2018-06-15T23:07:04.422Z,83.00
2018-06-15T23:09:34.527Z,83.00
2018-06-15T23:12:02.849Z,83.00
2018-06-15T23:14:31.175Z,83.00
2018-06-15T23:16:59.655Z,82.90
2018-06-15T23:19:27.946Z,82.90
2018-06-15T23:21:56.251Z,82.90
2018-06-15T23:24:24.691Z,82.80
2018-06-15T23:26:52.974Z,83.50
2018-06-15T23:29:21.239Z,82.80
2018-06-15T23:31:50.243Z,82.80
2018-06-15T23:34:18.490Z,82.80
2018-06-15T23:36:49.744Z,82.70
2018-06-15T23:39:18.247Z,82.70
2018-06-15T23:41:46.493Z,82.70
2018-06-15T23:44:14.723Z,82.70
2018-06-15T23:46:43.479Z,82.60
2018-06-15T23:49:11.806Z,82.60
2018-06-15T23:51:40.045Z,82.60
2018-06-15T23:54:08.724Z,82.60
2018-06-15T23:56:36.948Z,82.60
2018-06-15T23:59:05.711Z,82.60
